Time;durP1;ratioP1;P1;durP2;ratioP2;P2;SDS_P1;SDS_P2;PMS_P1;PMS_P2;Temp;Humidity;BMP_temperature;BMP_pressure;BME280_temperature;BME280_humidity;BME280_pressure;Samples;Min_cycle;Max_cycle;Signal;HPM_P1;HPM_P2
2022/05/08 00:01:09;;;;;;;;;;;;;;;26.74;39.93;94536.53;5009250;28;9051;-58
2022/05/08 00:03:45;;;;;;;;;;;;;;;26.74;39.33;94525.50;5001391;28;8974;-57
2022/05/08 00:06:11;;;;;;;;;;;;;;;26.73;40.40;94526.78;5025232;28;9500;-57
2022/05/08 00:09:02;;;;;;;;;;;;;;;26.71;39.59;94521.72;5011149;28;7312;-57
2022/05/08 00:11:29;;;;;;;;;;;;;;;26.70;40.40;94527.78;5003622;28;9453;-57
2022/05/08 00:14:00;;;;;;;;;;;;;;;26.67;39.86;94521.28;5010286;28;6890;-57
2022/05/08 00:16:34;;;;;;;;;;;;;;;26.68;39.71;94527.53;5028569;28;9027;-57
2022/05/08 00:19:01;;;;;;;;;;;;;;;26.68;40.11;94527.53;5031693;28;9037;-57
2022/05/08 00:21:28;;;;;;;;;;;;;;;26.68;39.48;94531.06;5067569;28;7291;-57
2022/05/08 00:23:58;;;;;;;;;;;;;;;26.67;39.77;94535.06;5067908;28;7320;-57
2022/05/08 00:26:30;;;;;;;;;;;;;;;26.67;40.18;94526.78;5076969;28;7223;-57
2022/05/08 00:29:06;;;;;;;;;;;;;;;26.67;39.46;94529.53;5043342;28;7572;-57
2022/05/08 00:31:32;;;;;;;;;;;;;;;26.65;39.63;94531.31;5083054;28;7475;-58
2022/05/08 00:34:06;;;;;;;;;;;;;;;26.67;39.31;94529.53;5067894;28;7800;-57
2022/05/08 00:36:36;;;;;;;;;;;;;;;26.64;39.61;94524.31;5069314;28;9345;-58
2022/05/08 00:39:02;;;;;;;;;;;;;;;26.64;39.50;94524.31;5068712;28;8280;-58
2022/05/08 00:41:36;;;;;;;;;;;;;;;26.60;39.42;94521.09;5081455;28;9449;-58
2022/05/08 00:44:03;;;;;;;;;;;;;;;26.63;39.41;94529.09;5070159;28;9053;-58
2022/05/08 00:46:32;;;;;;;;;;;;;;;26.61;40.10;94528.84;5082312;28;8996;-58
2022/05/08 00:49:06;;;;;;;;;;;;;;;26.57;40.34;94527.63;5061650;28;8871;-58
2022/05/08 00:51:47;;;;;;;;;;;;;;;26.58;40.39;94532.63;5066347;28;7313;-58
2022/05/08 00:54:14;;;;;;;;;;;;;;;26.59;39.86;94525.09;5078679;28;9077;-57
2022/05/08 00:56:41;;;;;;;;;;;;;;;26.60;39.46;94529.38;5083108;28;7438;-57
2022/05/08 00:59:07;;;;;;;;;;;;;;;26.59;39.19;94525.84;5068690;28;9084;-58
2022/05/08 01:01:33;;;;;;;;;;;;;;;26.58;39.60;94521.59;5064344;28;7261;-57
2022/05/08 01:04:01;;;;;;;;;;;;;;;26.58;39.84;94521.59;5082138;28;7254;-57
2022/05/08 01:06:31;;;;;;;;;;;;;;;26.60;39.10;94521.09;5068501;28;9051;-57
2022/05/08 01:08:58;;;;;;;;;;;;;;;26.58;40.04;94513.31;5063993;28;9529;-57
2022/05/08 01:11:24;;;;;;;;;;;;;;;26.59;40.14;94516.81;5064486;28;9555;-57
2022/05/08 01:14:22;;;;;;;;;;;;;;;26.56;39.72;94506.81;5068124;28;7539;-57
2022/05/08 01:16:48;;;;;;;;;;;;;;;26.58;39.86;94512.56;5012311;28;8844;-57
2022/05/08 01:19:25;;;;;;;;;;;;;;;26.54;39.67;94509.34;5027169;28;7418;-57
2022/05/08 01:21:52;;;;;;;;;;;;;;;26.55;39.83;94519.13;5008064;28;9166;-57
2022/05/08 01:24:24;;;;;;;;;;;;;;;26.54;40.17;94515.59;5012503;28;9363;-58
2022/05/08 01:27:00;;;;;;;;;;;;;;;26.53;39.64;94516.88;5011697;28;6946;-58
2022/05/08 01:29:27;;;;;;;;;;;;;;;26.51;39.60;94521.41;5019071;28;8779;-58
2022/05/08 01:32:20;;;;;;;;;;;;;;;26.51;39.71;94513.88;5011475;28;8159;-57
2022/05/08 01:34:54;;;;;;;;;;;;;;;26.52;38.93;94531.16;5027919;28;7228;-57
2022/05/08 01:37:20;;;;;;;;;;;;;;;26.51;39.87;94529.69;5023261;28;9120;-58
2022/05/08 01:39:46;;;;;;;;;;;;;;;26.51;39.92;94524.19;5019983;28;8200;-57
2022/05/08 01:42:15;;;;;;;;;;;;;;;26.50;40.15;94525.41;5021010;28;8858;-57
2022/05/08 01:44:42;;;;;;;;;;;;;;;26.48;39.57;94523.19;5008040;28;7600;-57
2022/05/08 01:49:53;;;;;;;;;;;;;;;26.46;39.81;94522.97;5019339;28;7234;-58
2022/05/08 01:52:19;;;;;;;;;;;;;;;26.46;39.60;94528.47;5041489;28;6865;-59
2022/05/08 01:54:46;;;;;;;;;;;;;;;26.47;39.31;94523.72;5064580;28;7240;-57
2022/05/08 01:57:12;;;;;;;;;;;;;;;26.46;39.44;94522.19;5062645;28;9063;-58
2022/05/08 01:59:38;;;;;;;;;;;;;;;26.43;39.89;94523.22;5062274;28;7433;-57
2022/05/08 02:02:05;;;;;;;;;;;;;;;26.43;39.85;94526.72;5075865;28;9413;-58
2022/05/08 02:04:42;;;;;;;;;;;;;;;26.42;39.85;94530.75;5064648;28;7270;-57
2022/05/08 02:07:08;;;;;;;;;;;;;;;26.42;39.90;94527.25;5068443;28;7194;-57
2022/05/08 02:09:41;;;;;;;;;;;;;;;26.39;39.60;94528.25;5076960;28;9401;-57
2022/05/08 02:12:19;;;;;;;;;;;;;;;26.39;39.10;94533.78;5068919;28;9421;-57
2022/05/08 02:14:45;;;;;;;;;;;;;;;26.40;39.23;94527.78;5065258;28;7254;-57
2022/05/08 02:17:14;;;;;;;;;;;;;;;26.40;39.08;94538.03;5077490;28;9104;-57
2022/05/08 02:19:46;;;;;;;;;;;;;;;26.39;39.99;94528.25;5065149;28;9139;-57
2022/05/08 02:22:21;;;;;;;;;;;;;;;26.38;39.83;94524.03;5088653;28;7276;-57
2022/05/08 02:24:48;;;;;;;;;;;;;;;26.38;39.00;94526.78;5070993;28;9003;-57
2022/05/08 02:27:15;;;;;;;;;;;;;;;26.35;39.52;94519.53;5069273;28;9054;-57
2022/05/08 02:29:41;;;;;;;;;;;;;;;26.37;39.32;94525.28;5068474;28;9010;-57
2022/05/08 02:32:08;;;;;;;;;;;;;;;26.36;38.98;94523.78;5061578;28;9066;-58
2022/05/08 02:34:36;;;;;;;;;;;;;;;26.35;39.76;94516.75;5064488;28;7207;-58
2022/05/08 02:37:02;;;;;;;;;;;;;;;26.35;39.08;94519.53;5067967;28;9200;-58
2022/05/08 02:39:30;;;;;;;;;;;;;;;26.34;39.79;94520.78;5065384;28;8885;-58
2022/05/08 02:41:58;;;;;;;;;;;;;;;26.33;39.78;94519.28;5068803;28;7051;-58
2022/05/08 02:44:24;;;;;;;;;;;;;;;26.33;39.78;94517.28;5064820;28;7656;-58
2022/05/08 02:46:50;;;;;;;;;;;;;;;26.32;39.75;94521.28;5064819;28;7252;-59
2022/05/08 02:49:17;;;;;;;;;;;;;;;26.31;39.16;94517.06;5082048;28;7509;-58
2022/05/08 02:51:42;;;;;;;;;;;;;;;26.31;39.40;94519.06;5066786;28;6925;-58
2022/05/08 02:54:11;;;;;;;;;;;;;;;26.28;39.40;94515.31;5065888;28;7097;-58
2022/05/08 02:59:27;;;;;;;;;;;;;;;26.30;39.48;94515.53;5070289;28;9707;-58
2022/05/08 03:01:55;;;;;;;;;;;;;;;26.26;38.88;94509.56;5072164;28;7314;-58
2022/05/08 03:04:21;;;;;;;;;;;;;;;26.27;39.43;94515.81;5072350;28;7348;-58
2022/05/08 03:06:47;;;;;;;;;;;;;;;26.27;39.72;94513.81;5072241;28;8788;-58
2022/05/08 03:09:13;;;;;;;;;;;;;;;26.26;39.22;94515.06;5071960;28;7180;-56
2022/05/08 03:11:45;;;;;;;;;;;;;;;26.23;39.67;94512.59;5065669;28;8616;-58
2022/05/08 03:14:44;;;;;;;;;;;;;;;26.25;39.21;94515.59;5072418;28;10289;-58
2022/05/08 03:17:48;;;;;;;;;;;;;;;26.25;38.84;94507.31;5027239;28;8314;-58
2022/05/08 03:20:44;;;;;;;;;;;;;;;26.23;38.80;94509.84;5012930;28;8963;-57
2022/05/08 03:23:11;;;;;;;;;;;;;;;26.21;39.59;94507.59;5007750;28;7691;-57
2022/05/08 03:25:37;;;;;;;;;;;;;;;26.20;39.74;94511.63;4967130;28;7292;-58
2022/05/08 03:28:06;;;;;;;;;;;;;;;26.20;39.52;94500.59;4997137;28;9101;-58
2022/05/08 03:30:32;;;;;;;;;;;;;;;26.20;39.85;94505.34;5005485;28;7479;-57
2022/05/08 03:33:09;;;;;;;;;;;;;;;26.19;39.77;94510.09;4980231;28;8949;-56
2022/05/08 03:35:40;;;;;;;;;;;;;;;26.19;38.84;94506.63;4993468;28;7145;-57
2022/05/08 03:38:18;;;;;;;;;;;;;;;26.17;39.68;94499.59;4992170;28;7512;-57
2022/05/08 03:40:46;;;;;;;;;;;;;;;26.16;39.86;94506.34;4977291;28;6860;-56
2022/05/08 03:43:13;;;;;;;;;;;;;;;26.17;39.17;94499.59;5003689;28;7161;-56
2022/05/08 03:45:49;;;;;;;;;;;;;;;26.13;39.14;94496.38;5010005;28;9451;-57
2022/05/08 03:48:20;;;;;;;;;;;;;;;26.14;39.32;94491.63;4992381;28;9202;-56
2022/05/08 03:50:56;;;;;;;;;;;;;;;26.13;39.75;94498.38;4998352;28;7372;-57
2022/05/08 03:53:22;;;;;;;;;;;;;;;26.15;39.33;94498.59;5021347;28;8747;-57
2022/05/08 03:55:48;;;;;;;;;;;;;;;26.14;39.03;94497.13;5033822;28;9049;-56
2022/05/08 03:58:15;;;;;;;;;;;;;;;26.11;39.54;94504.41;5026422;28;7066;-56
2022/05/08 04:00:43;;;;;;;;;;;;;;;26.11;39.57;94504.41;5067431;28;8779;-56
2022/05/08 04:03:10;;;;;;;;;;;;;;;26.10;39.88;94502.91;5067247;28;8814;-57
2022/05/08 04:05:43;;;;;;;;;;;;;;;26.09;39.56;94495.91;5070249;28;7431;-57
2022/05/08 04:08:17;;;;;;;;;;;;;;;26.09;38.80;94501.41;5060945;28;9882;-57
2022/05/08 04:10:45;;;;;;;;;;;;;;;26.08;39.41;94499.91;5071529;28;7070;-57
2022/05/08 04:13:17;;;;;;;;;;;;;;;26.08;39.11;94499.91;5068091;28;9100;-57
2022/05/08 04:18:42;;;;;;;;;;;;;;;26.07;39.81;94495.63;5063476;28;9237;-58
2022/05/08 04:21:08;;;;;;;;;;;;;;;26.06;39.23;94491.38;5063887;28;7647;-58
2022/05/08 04:26:56;;;;;;;;;;;;;;;26.05;39.06;94500.91;5070476;28;7882;-57
2022/05/08 04:29:33;;;;;;;;;;;;;;;26.05;38.85;94500.16;5042468;28;9113;-57
2022/05/08 04:32:07;;;;;;;;;;;;;;;26.04;38.84;94499.41;5047860;28;7254;-57
2022/05/08 04:34:33;;;;;;;;;;;;;;;26.01;39.11;94494.91;5027980;28;9289;-56
2022/05/08 04:37:00;;;;;;;;;;;;;;;26.03;39.55;94497.16;5046625;28;8935;-56
2022/05/08 04:39:27;;;;;;;;;;;;;;;26.02;39.04;94501.94;5030113;28;9177;-56
2022/05/08 04:41:53;;;;;;;;;;;;;;;25.98;38.83;94495.94;5022916;28;7138;-57
2022/05/08 04:44:29;;;;;;;;;;;;;;;26.00;39.06;94509.19;5029781;28;7243;-57
2022/05/08 04:47:15;;;;;;;;;;;;;;;26.00;39.46;94504.44;5029720;28;9459;-56
2022/05/08 04:49:41;;;;;;;;;;;;;;;25.99;38.83;94513.97;5028108;28;8758;-57
2022/05/08 04:52:09;;;;;;;;;;;;;;;25.99;38.97;94507.72;5026329;28;9349;-58
2022/05/08 04:54:45;;;;;;;;;;;;;;;25.98;39.12;94515.22;5027458;28;7917;-57
2022/05/08 04:57:13;;;;;;;;;;;;;;;25.98;39.35;94512.47;5029489;28;9123;-57
2022/05/08 04:59:39;;;;;;;;;;;;;;;25.97;39.58;94516.47;5038117;28;8804;-57
2022/05/08 05:02:11;;;;;;;;;;;;;;;25.97;39.67;94518.47;5046438;28;7275;-57
2022/05/08 05:04:36;;;;;;;;;;;;;;;25.96;39.41;94519.75;5026748;28;8026;-57
2022/05/08 05:07:03;;;;;;;;;;;;;;;25.96;38.78;94517.00;5065765;28;9133;-56
2022/05/08 05:09:33;;;;;;;;;;;;;;;25.96;39.10;94515.00;5065931;28;9377;-57
2022/05/08 05:12:02;;;;;;;;;;;;;;;25.95;38.78;94519.00;5077419;28;7254;-58
2022/05/08 05:14:32;;;;;;;;;;;;;;;25.95;38.78;94527.28;5083521;28;7261;-57
2022/05/08 05:17:00;;;;;;;;;;;;;;;25.94;39.39;94530.53;5080862;28;7092;-58
2022/05/08 05:19:31;;;;;;;;;;;;;;;25.94;38.95;94534.06;5062621;28;9130;-57
2022/05/08 05:22:24;;;;;;;;;;;;;;;25.93;39.67;94537.31;5064476;28;9414;-58
2022/05/08 05:25:00;;;;;;;;;;;;;;;25.93;39.82;94537.31;5021332;28;8723;-57
2022/05/08 05:27:27;;;;;;;;;;;;;;;25.92;39.31;94533.06;5016630;28;7280;-57
2022/05/08 05:30:03;;;;;;;;;;;;;;;25.93;39.09;94534.53;5002753;28;7339;-57
2022/05/08 05:32:29;;;;;;;;;;;;;;;25.92;39.66;94525.53;5028024;28;7345;-56
2022/05/08 05:35:08;;;;;;;;;;;;;;;25.93;39.58;94537.31;5009109;28;7875;-56
2022/05/08 05:37:35;;;;;;;;;;;;;;;25.94;39.85;94538.81;5025717;28;9503;-58
2022/05/08 05:40:04;;;;;;;;;;;;;;;25.92;39.50;94536.56;5030520;28;7903;-58
2022/05/08 05:42:39;;;;;;;;;;;;;;;25.91;39.69;94539.81;5000731;28;7255;-58
2022/05/08 05:45:08;;;;;;;;;;;;;;;25.90;39.15;94536.31;5011369;28;6935;-58
2022/05/08 05:47:49;;;;;;;;;;;;;;;25.90;39.36;94538.34;5021836;28;9451;-58
2022/05/08 05:50:21;;;;;;;;;;;;;;;25.89;39.40;94548.59;5004333;28;7384;-58
2022/05/08 05:52:56;;;;;;;;;;;;;;;25.84;39.22;94535.59;4941349;28;11922;-57
2022/05/08 05:55:22;;;;;;;;;;;;;;;25.89;40.04;94545.84;4967025;28;8766;-58
2022/05/08 05:57:48;;;;;;;;;;;;;;;25.87;39.86;94547.59;4969800;28;9453;-57
2022/05/08 06:00:17;;;;;;;;;;;;;;;25.86;39.65;94544.09;4961541;28;8736;-57
2022/05/08 06:02:45;;;;;;;;;;;;;;;25.85;39.59;94556.38;5019284;28;7003;-57
2022/05/08 06:05:13;;;;;;;;;;;;;;;25.84;39.12;94546.63;5020606;28;7233;-58
2022/05/08 06:07:42;;;;;;;;;;;;;;;25.84;39.83;94551.38;5000161;28;9691;-58
2022/05/08 06:10:10;;;;;;;;;;;;;;;25.84;39.24;94551.38;5003712;28;7353;-58
2022/05/08 06:12:36;;;;;;;;;;;;;;;25.83;39.59;94549.88;5012459;28;7334;-58
2022/05/08 06:15:03;;;;;;;;;;;;;;;25.83;39.20;94549.88;4998024;28;7009;-58
2022/05/08 06:17:29;;;;;;;;;;;;;;;25.82;39.43;94557.41;5006615;28;7104;-57
2022/05/08 06:19:57;;;;;;;;;;;;;;;25.82;39.21;94556.63;5003128;28;7922;-57
2022/05/08 06:22:23;;;;;;;;;;;;;;;25.82;40.09;94560.16;5024855;28;6980;-57
2022/05/08 06:24:55;;;;;;;;;;;;;;;25.82;39.43;94564.91;5008858;28;8722;-57
2022/05/08 06:27:32;;;;;;;;;;;;;;;25.81;39.80;94555.16;5008936;28;7622;-58
2022/05/08 06:30:05;;;;;;;;;;;;;;;25.81;40.37;94569.69;5009650;28;9076;-57
2022/05/08 06:32:31;;;;;;;;;;;;;;;25.81;40.32;94563.44;5016910;28;7491;-58
2022/05/08 06:35:18;;;;;;;;;;;;;;;25.80;40.40;94562.66;5010785;28;6998;-57
2022/05/08 06:37:46;;;;;;;;;;;;;;;25.81;40.21;94566.94;5008222;28;9078;-57
2022/05/08 06:40:14;;;;;;;;;;;;;;;25.79;40.17;94561.19;5020528;28;9211;-57
2022/05/08 06:42:43;;;;;;;;;;;;;;;25.81;39.82;94564.19;5010003;28;8727;-57
2022/05/08 06:45:09;;;;;;;;;;;;;;;25.80;39.45;94559.91;5017120;28;8820;-57
2022/05/08 06:47:41;;;;;;;;;;;;;;;25.80;40.14;94564.66;5002845;28;7903;-61
2022/05/08 06:50:11;;;;;;;;;;;;;;;25.80;39.75;94562.66;5014834;28;7333;-57
2022/05/08 06:52:37;;;;;;;;;;;;;;;25.77;39.58;94560.94;5027937;28;7310;-57
2022/05/08 06:55:05;;;;;;;;;;;;;;;25.78;39.85;94562.44;5023631;28;8892;-57
2022/05/08 06:57:33;;;;;;;;;;;;;;;25.80;39.83;94565.44;5018430;28;7368;-58
2022/05/08 07:02:44;;;;;;;;;;;;;;;25.78;40.08;94558.91;5002394;28;9035;-58
2022/05/08 07:05:13;;;;;;;;;;;;;;;25.74;39.87;94564.72;5007233;28;7264;-57
2022/05/08 07:07:39;;;;;;;;;;;;;;;25.78;39.83;94564.44;5003228;28;7909;-58
2022/05/08 07:10:08;;;;;;;;;;;;;;;25.77;40.16;94560.94;5007964;28;7028;-58
2022/05/08 07:12:37;;;;;;;;;;;;;;;25.77;39.87;94560.94;5000178;28;9060;-58
2022/05/08 07:15:05;;;;;;;;;;;;;;;25.77;39.80;94563.69;5008360;28;7850;-58
2022/05/08 07:17:37;;;;;;;;;;;;;;;25.77;39.56;94563.69;5022467;28;6862;-58
2022/05/08 07:20:33;;;;;;;;;;;;;;;25.76;40.44;94562.19;5005055;28;7222;-58
2022/05/08 07:23:00;;;;;;;;;;;;;;;25.78;40.66;94565.19;4946769;28;9161;-58
2022/05/08 07:25:27;;;;;;;;;;;;;;;25.78;40.15;94565.19;4925232;28;10575;-57
2022/05/08 07:27:53;;;;;;;;;;;;;;;25.78;40.61;94578.22;4934094;28;7784;-58
2022/05/08 07:30:23;;;;;;;;;;;;;;;25.77;40.24;94580.22;4925726;28;9508;-58
2022/05/08 07:33:22;;;;;;;;;;;;;;;25.76;39.62;94573.22;4933791;28;7479;-58
2022/05/08 07:38:34;;;;;;;;;;;;;;;25.76;39.62;94583.47;4889210;29;7751;-57
2022/05/08 07:41:02;;;;;;;;;;;;;;;25.77;40.26;94573.97;4896076;29;9069;-57
2022/05/08 07:43:28;;;;;;;;;;;;;;;25.76;39.53;94583.47;4874775;29;9601;-57
2022/05/08 07:45:56;;;;;;;;;;;;;;;25.76;39.78;94575.97;4895693;29;7065;-58
2022/05/08 07:48:23;;;;;;;;;;;;;;;25.75;40.36;94584.75;4888898;29;7121;-58
2022/05/08 07:50:50;;;;;;;;;;;;;;;25.75;40.37;94588.22;4891825;29;7899;-57
2022/05/08 07:53:16;;;;;;;;;;;;;;;25.75;40.27;94585.47;4898381;29;9013;-57
2022/05/08 07:55:42;;;;;;;;;;;;;;;25.74;39.95;94586.75;4882223;29;9118;-57
2022/05/08 07:58:13;;;;;;;;;;;;;;;25.73;39.73;94582.47;4892409;29;7380;-57
2022/05/08 08:00:39;;;;;;;;;;;;;;;25.74;39.62;94586.00;4940688;28;7304;-57
2022/05/08 08:03:07;;;;;;;;;;;;;;;25.75;40.21;94598.53;4947891;28;9216;-58
2022/05/08 08:05:33;;;;;;;;;;;;;;;25.72;40.43;94594.78;4915528;29;9232;-58
2022/05/08 08:07:59;;;;;;;;;;;;;;;25.70;40.42;94594.53;4943447;28;8919;-58
2022/05/08 08:10:39;;;;;;;;;;;;;;;25.74;40.41;94600.53;4921254;28;8783;-58
2022/05/08 08:13:05;;;;;;;;;;;;;;;25.73;40.66;94599.00;5010481;28;9342;-57
2022/05/08 08:15:31;;;;;;;;;;;;;;;25.72;40.96;94594.78;5007356;28;9415;-57
2022/05/08 08:17:57;;;;;;;;;;;;;;;25.72;40.17;94597.53;5009170;28;7257;-58
2022/05/08 08:20:24;;;;;;;;;;;;;;;25.72;40.77;94600.28;5009356;28;6964;-57
2022/05/08 08:22:51;;;;;;;;;;;;;;;25.74;40.39;94603.28;5030563;28;9000;-57
2022/05/08 08:25:17;;;;;;;;;;;;;;;25.74;40.96;94605.28;5003526;28;7371;-57
2022/05/08 08:27:58;;;;;;;;;;;;;;;25.73;40.08;94607.28;5014629;28;8668;-58
2022/05/08 08:30:24;;;;;;;;;;;;;;;25.75;40.51;94606.78;5009485;28;9330;-57
2022/05/08 08:32:51;;;;;;;;;;;;;;;25.76;39.90;94611.78;5008617;28;8798;-57
2022/05/08 08:35:17;;;;;;;;;;;;;;;25.77;40.60;94609.78;5018293;28;7245;-57
2022/05/08 08:37:45;;;;;;;;;;;;;;;25.76;40.05;94611.03;5021190;28;8993;-58
2022/05/08 08:40:13;;;;;;;;;;;;;;;25.76;40.75;94606.28;5002837;28;7290;-58
2022/05/08 08:42:43;;;;;;;;;;;;;;;25.76;40.51;94603.50;5027905;28;6859;-57
2022/05/08 08:48:28;;;;;;;;;;;;;;;25.76;40.83;94606.28;5012093;28;8757;-58
2022/05/08 08:51:02;;;;;;;;;;;;;;;25.79;44.25;94599.75;5004632;28;8165;-57
2022/05/08 08:53:32;;;;;;;;;;;;;;;25.80;42.78;94600.50;5011229;28;8142;-57
2022/05/08 08:56:00;;;;;;;;;;;;;;;25.81;41.69;94599.25;5007709;28;7243;-57
2022/05/08 08:58:26;;;;;;;;;;;;;;;25.80;41.18;94592.22;5008104;28;6864;-58
2022/05/08 09:00:52;;;;;;;;;;;;;;;25.78;40.64;94606.50;5021831;28;7094;-57
2022/05/08 09:03:19;;;;;;;;;;;;;;;25.80;41.30;94600.50;5016080;28;6981;-57
2022/05/08 09:05:46;;;;;;;;;;;;;;;25.81;40.94;94599.25;5020165;28;7430;-57
2022/05/08 09:08:31;;;;;;;;;;;;;;;25.81;41.31;94608.25;4999987;28;7982;-58
2022/05/08 09:10:58;;;;;;;;;;;;;;;25.82;40.90;94609.00;4999801;28;9029;-57
2022/05/08 09:13:26;;;;;;;;;;;;;;;25.82;40.39;94606.25;5003384;28;7282;-58
2022/05/08 09:16:06;;;;;;;;;;;;;;;25.83;41.48;94605.00;5004328;28;7282;-57
2022/05/08 09:18:46;;;;;;;;;;;;;;;25.82;41.51;94609.00;5003957;28;7238;-58
2022/05/08 09:24:14;;;;;;;;;;;;;;;25.83;41.45;94600.25;5002946;28;9008;-57
2022/05/08 09:26:44;;;;;;;;;;;;;;;25.85;41.73;94596.97;5022235;28;7722;-58
2022/05/08 09:29:22;;;;;;;;;;;;;;;25.84;41.01;94600.97;5018817;28;9056;-57
2022/05/08 09:31:52;;;;;;;;;;;;;;;25.84;41.32;94601.72;5004486;28;9154;-57
2022/05/08 09:34:20;;;;;;;;;;;;;;;25.86;41.50;94599.22;5005311;28;8774;-57
2022/05/08 09:37:05;;;;;;;;;;;;;;;25.86;40.93;94601.22;5002945;28;9111;-55
2022/05/08 09:39:32;;;;;;;;;;;;;;;25.82;41.10;94601.47;5016527;28;7226;-57
2022/05/08 09:42:00;;;;;;;;;;;;;;;25.77;39.41;94607.03;5024768;28;9282;-56
2022/05/08 09:44:53;;;;;;;;;;;;;;;25.68;38.18;94602.56;5005552;28;6878;-56
2022/05/08 09:47:59;;;;;;;;;;;;;;;25.52;37.47;94608.84;5019198;28;7262;-57
2022/05/08 09:50:28;;;;;;;;;;;;;;;25.49;37.67;94604.34;5003331;28;7046;-57
2022/05/08 09:52:54;;;;;;;;;;;;;;;25.50;37.06;94605.09;5004354;28;7086;-56
2022/05/08 09:55:21;;;;;;;;;;;;;;;25.52;37.09;94603.34;5019048;28;8041;-57
2022/05/08 09:57:47;;;;;;;;;;;;;;;25.55;37.91;94612.59;5019447;28;9463;-57
2022/05/08 10:00:14;;;;;;;;;;;;;;;25.57;37.68;94610.09;5003982;28;12245;-58
2022/05/08 10:02:43;;;;;;;;;;;;;;;25.58;38.02;94601.31;5004013;28;7147;-57
2022/05/08 10:05:10;;;;;;;;;;;;;;;25.62;38.77;94601.81;5002517;28;9072;-57
2022/05/08 10:07:39;;;;;;;;;;;;;;;25.65;38.74;94597.28;5009949;28;7130;-57
2022/05/08 10:15:49;;;;;;;;;;;;;;;25.71;40.12;94604.28;5002261;28;9402;-57
2022/05/08 10:18:28;;;;;;;;;;;;;;;25.74;40.94;94603.28;5006361;28;9474;-57
2022/05/08 10:21:28;;;;;;;;;;;;;;;25.74;40.47;94594.25;5021997;28;9003;-57
2022/05/08 10:23:54;;;;;;;;;;;;;;;25.74;40.77;94586.75;5001955;28;7246;-56
2022/05/08 10:26:23;;;;;;;;;;;;;;;25.77;41.05;94585.00;4999963;28;9086;-58
2022/05/08 10:29:03;;;;;;;;;;;;;;;25.79;40.39;94583.22;5005074;28;7310;-57
2022/05/08 10:31:55;;;;;;;;;;;;;;;25.81;40.45;94579.97;5004206;28;7029;-57
2022/05/08 10:34:39;;;;;;;;;;;;;;;25.79;40.76;94583.22;4999100;28;9035;-57
2022/05/08 10:37:34;;;;;;;;;;;;;;;25.82;40.09;94587.72;4991045;28;7920;-56
2022/05/08 10:40:03;;;;;;;;;;;;;;;25.82;40.06;94582.19;4995079;28;9374;-57
2022/05/08 10:42:33;;;;;;;;;;;;;;;25.85;40.54;94585.94;4993263;28;8357;-57
2022/05/08 10:45:36;;;;;;;;;;;;;;;25.83;40.15;94578.19;5007097;28;7267;-57
2022/05/08 10:48:08;;;;;;;;;;;;;;;25.86;40.96;94581.94;4987101;28;7284;-57
2022/05/08 10:51:00;;;;;;;;;;;;;;;25.86;40.74;94581.94;4985475;28;7205;-57
2022/05/08 10:53:29;;;;;;;;;;;;;;;25.85;40.48;94578.44;4989771;28;6945;-57
2022/05/08 10:56:06;;;;;;;;;;;;;;;25.89;41.08;94576.16;4991610;28;7155;-56
2022/05/08 10:58:34;;;;;;;;;;;;;;;25.90;40.33;94572.13;4983514;28;7050;-58
2022/05/08 11:01:03;;;;;;;;;;;;;;;25.91;40.85;94570.88;5005450;28;7349;-58
2022/05/08 11:03:30;;;;;;;;;;;;;;;25.93;40.79;94571.13;5021663;28;7232;-57
2022/05/08 11:05:57;;;;;;;;;;;;;;;25.94;41.29;94561.63;5008419;28;7458;-58
2022/05/08 11:08:31;;;;;;;;;;;;;;;25.96;40.71;94563.84;5022678;28;7288;-57
2022/05/08 11:11:18;;;;;;;;;;;;;;;25.97;41.13;94563.34;5023168;28;8884;-56
2022/05/08 11:13:48;;;;;;;;;;;;;;;25.98;41.13;94562.09;5008586;28;8988;-57
2022/05/08 11:16:33;;;;;;;;;;;;;;;25.98;41.24;94562.09;5015852;28;9063;-57
2022/05/08 11:19:04;;;;;;;;;;;;;;;25.98;41.26;94570.34;4997907;28;7689;-58
2022/05/08 11:21:32;;;;;;;;;;;;;;;25.98;40.68;94567.59;5003209;28;7394;-57
2022/05/08 11:24:02;;;;;;;;;;;;;;;25.99;41.64;94569.09;5017759;28;6864;-57
2022/05/08 11:26:39;;;;;;;;;;;;;;;26.00;40.97;94562.31;5005164;28;9055;-57
2022/05/08 11:29:15;;;;;;;;;;;;;;;26.01;41.57;94566.56;5017591;28;7485;-58
2022/05/08 11:36:04;;;;;;;;;;;;;;;26.03;41.70;94569.56;5022580;28;7363;-57
2022/05/08 11:38:05;;;;;;;;;;;;;;;26.03;41.70;94569.56;5005424;28;9072;-58
2022/05/08 11:40:32;;;;;;;;;;;;;;;26.05;41.20;94572.59;5004871;28;7083;-58
2022/05/08 11:43:00;;;;;;;;;;;;;;;26.07;40.98;94570.06;5015841;28;7546;-56
2022/05/08 11:45:26;;;;;;;;;;;;;;;26.07;41.87;94577.56;5002338;28;9101;-57
2022/05/08 11:47:53;;;;;;;;;;;;;;;26.07;41.60;94570.06;5005262;28;7020;-58
2022/05/08 11:50:20;;;;;;;;;;;;;;;26.09;41.04;94572.31;5007421;28;9360;-58
2022/05/08 11:52:48;;;;;;;;;;;;;;;26.10;41.39;94573.81;5023055;28;9110;-57
2022/05/08 11:55:14;;;;;;;;;;;;;;;26.11;42.01;94576.06;5005381;28;7270;-57
2022/05/08 11:57:44;;;;;;;;;;;;;;;26.12;41.38;94574.81;5008772;28;7100;-57
2022/05/08 12:00:13;;;;;;;;;;;;;;;26.12;41.75;94583.06;4999883;28;6859;-57
2022/05/08 12:02:43;;;;;;;;;;;;;;;26.10;41.46;94577.31;5017491;28;7248;-57
2022/05/08 12:05:23;;;;;;;;;;;;;;;26.12;41.81;94576.84;5006108;28;8992;-58
2022/05/08 12:07:52;;;;;;;;;;;;;;;26.13;41.65;94581.84;5020340;28;7122;-57
2022/05/08 12:10:18;;;;;;;;;;;;;;;26.11;41.45;94567.06;5023059;28;9070;-57
2022/05/08 12:12:46;;;;;;;;;;;;;;;26.13;41.34;94576.31;5008695;28;9563;-57
2022/05/08 12:15:12;;;;;;;;;;;;;;;26.13;41.30;94570.81;5006527;28;7198;-58
2022/05/08 12:17:43;;;;;;;;;;;;;;;26.15;41.87;94576.56;5007707;28;7927;-57
2022/05/08 12:20:25;;;;;;;;;;;;;;;26.15;41.53;94570.28;5008528;28;6913;-58
2022/05/08 12:23:11;;;;;;;;;;;;;;;26.14;40.85;94574.31;5008946;28;9112;-58
2022/05/08 12:25:41;;;;;;;;;;;;;;;26.13;40.77;94565.28;5009346;28;7168;-58
2022/05/08 12:28:13;;;;;;;;;;;;;;;26.13;40.97;94578.31;5011877;28;7328;-58
2022/05/08 12:30:40;;;;;;;;;;;;;;;26.15;38.91;94573.78;5020757;28;7416;-57
2022/05/08 12:33:08;;;;;;;;;;;;;;;26.18;38.75;94574.78;5008859;28;7426;-57
2022/05/08 12:35:37;;;;;;;;;;;;;;;26.21;39.11;94568.22;5009847;28;7805;-57
2022/05/08 12:38:03;;;;;;;;;;;;;;;26.22;38.75;94580.03;5004303;28;7087;-58
2022/05/08 12:40:40;;;;;;;;;;;;;;;26.24;38.78;94577.50;5017844;28;9245;-58
2022/05/08 12:43:08;;;;;;;;;;;;;;;26.25;39.32;94576.25;5005747;28;9055;-57
2022/05/08 12:45:37;;;;;;;;;;;;;;;26.25;38.93;94568.75;4998154;28;7608;-57
2022/05/08 12:48:04;;;;;;;;;;;;;;;26.27;39.10;94571.72;5004433;28;7091;-57
2022/05/08 12:50:37;;;;;;;;;;;;;;;26.31;39.04;94565.94;4985312;28;7051;-57
2022/05/08 12:53:03;;;;;;;;;;;;;;;26.30;39.42;94580.97;5005112;28;9051;-58
2022/05/08 12:55:31;;;;;;;;;;;;;;;26.33;40.10;94569.69;5000282;28;9078;-57
2022/05/08 13:00:44;;;;;;;;;;;;;;;26.37;38.93;94569.41;5007827;28;9100;-58
2022/05/08 13:03:11;;;;;;;;;;;;;;;26.38;39.43;94570.91;5007206;28;7355;-57
2022/05/08 13:05:37;;;;;;;;;;;;;;;26.39;39.07;94572.38;5021633;28;9206;-58
2022/05/08 13:08:10;;;;;;;;;;;;;;;26.41;39.48;94570.63;5008071;28;9575;-58
2022/05/08 13:10:36;;;;;;;;;;;;;;;26.43;38.79;94564.59;5015430;28;7551;-58
2022/05/08 13:13:10;;;;;;;;;;;;;;;26.44;39.22;94568.84;5026205;28;9645;-57
2022/05/08 13:16:11;;;;;;;;;;;;;;;26.48;38.46;94563.81;5000020;28;7346;-57
2022/05/08 13:18:37;;;;;;;;;;;;;;;26.49;38.59;94559.81;5025561;28;9060;-57
2022/05/08 13:21:07;;;;;;;;;;;;;;;26.50;39.60;94562.03;5035635;28;7180;-56
2022/05/08 13:23:44;;;;;;;;;;;;;;;26.54;39.40;94562.50;5029468;28;9482;-57
2022/05/08 13:26:18;;;;;;;;;;;;;;;26.53;39.48;94563.78;5027122;28;9006;-57
2022/05/08 13:28:50;;;;;;;;;;;;;;;26.59;39.67;94563.72;5006810;28;7334;-58
2022/05/08 13:31:48;;;;;;;;;;;;;;;26.61;40.23;94564.72;5017831;28;7728;-57
2022/05/08 13:34:17;;;;;;;;;;;;;;;26.63;40.13;94569.72;4974816;28;7967;-58
2022/05/08 13:36:47;;;;;;;;;;;;;;;26.65;39.75;94567.19;4964885;28;7238;-58
2022/05/08 13:39:16;;;;;;;;;;;;;;;26.68;39.26;94566.16;4976394;28;9334;-58
2022/05/08 13:41:42;;;;;;;;;;;;;;;26.70;40.13;94567.16;4970746;28;9160;-58
2022/05/08 13:44:08;;;;;;;;;;;;;;;26.72;39.82;94566.63;4964921;28;9053;-57
2022/05/08 13:46:38;;;;;;;;;;;;;;;26.72;39.83;94566.63;4994941;28;7088;-58
2022/05/08 13:49:05;;;;;;;;;;;;;;;26.76;40.16;94572.66;4984183;28;7262;-58
2022/05/08 13:51:40;;;;;;;;;;;;;;;26.76;39.64;94561.59;4983690;28;7869;-57
2022/05/08 13:54:08;;;;;;;;;;;;;;;26.79;40.10;94555.06;4969613;28;7154;-57